createdAt,value
2018-05-27T00:00:02.095Z,14.27
2018-05-27T00:02:36.817Z,13.50
2018-05-27T00:05:11.551Z,14.70
2018-05-27T00:07:46.154Z,14.53
2018-05-27T00:10:20.704Z,13.90
2018-05-27T00:12:55.453Z,14.50
2018-05-27T00:15:30.843Z,14.00
2018-05-27T00:18:06.036Z,13.17
2018-05-27T00:20:40.623Z,15.00
2018-05-27T00:23:15.323Z,14.47
2018-05-27T00:25:50.041Z,14.57
2018-05-27T00:28:24.774Z,14.20
2018-05-27T00:30:59.566Z,14.80
2018-05-27T00:33:34.200Z,15.00
2018-05-27T00:36:08.857Z,14.43
2018-05-27T00:38:43.479Z,14.90
2018-05-27T00:41:18.149Z,13.73
2018-05-27T00:43:52.826Z,14.63
2018-05-27T00:46:28.318Z,15.13
2018-05-27T00:49:02.902Z,15.50
2018-05-27T00:51:40.744Z,13.93
2018-05-27T00:54:15.312Z,14.90
2018-05-27T00:56:49.953Z,14.90
2018-05-27T00:59:24.788Z,15.57
2018-05-27T01:01:59.436Z,15.93
2018-05-27T01:04:34.017Z,14.53
2018-05-27T01:07:08.597Z,15.70
2018-05-27T01:09:43.181Z,16.10
2018-05-27T01:12:17.791Z,15.77
2018-05-27T01:14:52.386Z,16.57
2018-05-27T01:17:27.068Z,17.00
2018-05-27T01:20:01.972Z,16.67
2018-05-27T01:22:39.691Z,15.30
2018-05-27T01:25:14.248Z,15.80
2018-05-27T01:27:48.918Z,15.53
2018-05-27T01:30:23.681Z,15.80
2018-05-27T01:32:59.028Z,15.80
2018-05-27T01:35:33.720Z,17.10
2018-05-27T01:38:09.059Z,16.00
2018-05-27T01:40:44.409Z,16.60
2018-05-27T01:43:20.011Z,15.60
2018-05-27T01:45:55.372Z,15.50
2018-05-27T01:48:29.931Z,16.00
2018-05-27T01:51:04.548Z,17.27
2018-05-27T01:53:39.272Z,16.80
2018-05-27T01:56:13.958Z,16.30
2018-05-27T01:58:48.761Z,16.37
2018-05-27T02:01:23.553Z,15.60
2018-05-27T02:03:58.230Z,17.50
2018-05-27T02:06:32.835Z,17.00
2018-05-27T02:09:07.481Z,16.20
2018-05-27T02:11:42.116Z,18.03
2018-05-27T02:14:16.701Z,18.07
2018-05-27T02:16:51.282Z,17.73
2018-05-27T02:19:25.918Z,17.90
2018-05-27T02:22:01.463Z,17.93
2018-05-27T02:24:36.237Z,17.50
2018-05-27T02:27:10.823Z,17.33
2018-05-27T02:29:45.448Z,18.40
2018-05-27T02:32:20.323Z,18.00
2018-05-27T02:34:54.998Z,18.00
2018-05-27T02:37:29.753Z,17.93
2018-05-27T02:40:04.024Z,18.10
2018-05-27T02:42:38.568Z,17.60
2018-05-27T02:45:13.241Z,17.23
2018-05-27T02:47:47.834Z,16.33
2018-05-27T02:50:22.452Z,17.00
2018-05-27T02:52:57.779Z,16.90
2018-05-27T02:55:32.075Z,18.40
2018-05-27T02:58:06.815Z,17.00
2018-05-27T03:00:41.453Z,17.30
2018-05-27T03:03:16.066Z,16.80
2018-05-27T03:05:50.623Z,17.67
2018-05-27T03:08:25.240Z,17.53
2018-05-27T03:10:59.824Z,17.20
2018-05-27T03:13:34.478Z,18.67
2018-05-27T03:16:09.168Z,17.43
2018-05-27T03:18:47.126Z,18.13
2018-05-27T03:21:21.786Z,17.83
2018-05-27T03:23:56.452Z,17.10
2018-05-27T03:26:31.390Z,17.47
2018-05-27T03:29:06.024Z,17.43
2018-05-27T03:31:41.368Z,17.37
2018-05-27T03:34:15.960Z,18.60
2018-05-27T03:36:51.324Z,19.67
2018-05-27T03:39:26.055Z,17.90
2018-05-27T03:42:00.641Z,18.23
2018-05-27T03:44:35.413Z,18.73
2018-05-27T03:47:10.018Z,18.50
2018-05-27T03:49:44.666Z,18.87
2018-05-27T03:52:19.317Z,17.80
2018-05-27T03:54:54.405Z,17.67
2018-05-27T03:57:29.871Z,17.93
2018-05-27T04:00:03.826Z,16.80
2018-05-27T04:02:38.376Z,18.23
2018-05-27T04:05:24.365Z,18.20
2018-05-27T04:08:11.423Z,19.07
2018-05-27T04:10:45.981Z,17.53
2018-05-27T04:16:01.415Z,18.10
2018-05-27T04:18:37.101Z,19.40
2018-05-27T04:21:12.282Z,18.73
2018-05-27T04:23:47.311Z,18.93
2018-05-27T04:26:24.407Z,19.30
2018-05-27T04:29:18.839Z,18.87
2018-05-27T04:32:05.300Z,19.93
2018-05-27T04:34:45.424Z,19.27
2018-05-27T04:37:20.680Z,19.33
2018-05-27T04:42:56.020Z,20.00
2018-05-27T04:45:35.247Z,19.27
2018-05-27T04:48:20.265Z,19.30
2018-05-27T04:56:32.229Z,17.37
2018-05-27T04:59:16.935Z,19.63
2018-05-27T05:02:01.806Z,20.13
2018-05-27T05:04:42.267Z,19.93
2018-05-27T05:07:24.604Z,18.93
2018-05-27T05:10:04.721Z,19.00
2018-05-27T05:12:47.838Z,19.50
2018-05-27T05:15:22.450Z,19.80
2018-05-27T05:17:57.102Z,20.40
2018-05-27T05:20:31.757Z,18.70
2018-05-27T05:23:06.606Z,18.13
2018-05-27T05:25:42.053Z,19.43
2018-05-27T05:28:23.436Z,18.57
2018-05-27T05:31:02.861Z,19.60
2018-05-27T05:33:37.615Z,19.33
2018-05-27T05:36:16.644Z,19.00
2018-05-27T05:38:52.360Z,19.13
2018-05-27T05:41:27.056Z,18.53
2018-05-27T05:44:03.902Z,19.67
2018-05-27T05:46:41.024Z,19.40
2018-05-27T05:49:21.265Z,20.53
2018-05-27T05:54:48.131Z,21.07
2018-05-27T05:57:31.252Z,19.20
2018-05-27T06:00:09.147Z,18.60
2018-05-27T06:02:44.744Z,17.90
2018-05-27T06:05:24.054Z,19.43
2018-05-27T06:07:59.805Z,18.87
2018-05-27T06:10:37.980Z,20.07
2018-05-27T06:13:16.223Z,17.23
2018-05-27T06:15:53.793Z,17.90
2018-05-27T06:18:32.129Z,18.50
2018-05-27T06:21:10.232Z,17.50
2018-05-27T06:23:50.316Z,17.13
2018-05-27T06:26:30.389Z,17.97
2018-05-27T06:29:12.501Z,16.90
2018-05-27T06:31:52.920Z,18.67
2018-05-27T06:34:36.043Z,18.07
2018-05-27T06:37:20.973Z,16.87
2018-05-27T06:40:05.928Z,18.33
2018-05-27T06:42:46.201Z,17.20
2018-05-27T06:45:28.988Z,16.50
2018-05-27T06:48:04.489Z,16.83
2018-05-27T06:50:39.152Z,17.47
2018-05-27T06:53:13.940Z,16.80
2018-05-27T06:55:48.323Z,16.63
2018-05-27T06:58:22.990Z,16.47
2018-05-27T07:00:57.649Z,15.60
2018-05-27T07:03:32.242Z,14.87
2018-05-27T07:06:06.883Z,14.80
2018-05-27T07:08:41.518Z,14.30
2018-05-27T07:11:16.080Z,14.17
2018-05-27T07:13:50.471Z,14.57
2018-05-27T07:16:25.206Z,14.30
2018-05-27T07:18:59.809Z,15.10
2018-05-27T07:21:35.024Z,14.30
2018-05-27T07:24:09.598Z,13.63
2018-05-27T07:26:44.290Z,14.43
2018-05-27T07:29:18.882Z,14.00
2018-05-27T07:31:54.224Z,14.60
2018-05-27T07:34:28.835Z,13.37
2018-05-27T07:37:03.682Z,13.40
2018-05-27T07:39:38.369Z,12.80
2018-05-27T07:42:12.971Z,13.40
2018-05-27T07:44:47.573Z,12.17
2018-05-27T07:47:22.228Z,14.03
2018-05-27T07:49:56.836Z,13.83
2018-05-27T07:52:31.560Z,12.30
2018-05-27T07:55:06.161Z,13.83
2018-05-27T07:57:40.861Z,13.10
2018-05-27T08:00:15.695Z,12.97
2018-05-27T08:02:50.305Z,12.50
2018-05-27T08:05:25.004Z,13.53
2018-05-27T08:07:59.582Z,13.83
2018-05-27T08:10:35.163Z,11.93
2018-05-27T08:13:11.247Z,12.60
2018-05-27T08:15:45.955Z,14.10
2018-05-27T08:18:20.588Z,12.80
2018-05-27T08:20:55.148Z,12.43
2018-05-27T08:23:29.888Z,12.77
2018-05-27T08:26:04.433Z,11.60
2018-05-27T08:28:39.951Z,13.40
2018-05-27T08:31:14.589Z,12.63
2018-05-27T08:33:49.212Z,12.00
2018-05-27T08:36:23.890Z,12.47
2018-05-27T08:38:58.481Z,12.40
2018-05-27T08:41:36.591Z,11.80
2018-05-27T08:44:11.176Z,12.90
2018-05-27T08:46:46.002Z,13.10
2018-05-27T08:49:20.716Z,12.40
2018-05-27T08:51:55.363Z,12.30
2018-05-27T08:54:29.959Z,12.00
2018-05-27T08:57:04.703Z,12.73
2018-05-27T08:59:40.019Z,11.70
2018-05-27T09:02:15.010Z,12.33
2018-05-27T09:04:49.618Z,12.20
2018-05-27T09:07:24.406Z,11.80
2018-05-27T09:09:59.009Z,12.77
2018-05-27T09:12:33.623Z,11.87
2018-05-27T09:15:08.427Z,12.67
2018-05-27T09:17:44.093Z,12.40
2018-05-27T09:20:18.682Z,12.13
2018-05-27T09:22:53.253Z,12.60
2018-05-27T09:25:27.972Z,12.53
2018-05-27T09:28:02.689Z,12.60
2018-05-27T09:30:37.308Z,11.97
2018-05-27T09:33:11.882Z,11.77
2018-05-27T09:35:46.592Z,11.90
2018-05-27T09:38:22.158Z,11.63
2018-05-27T09:40:57.691Z,13.30
2018-05-27T09:43:32.458Z,11.97
2018-05-27T09:46:07.028Z,13.30
2018-05-27T09:48:41.636Z,12.27
2018-05-27T09:51:16.263Z,12.40
2018-05-27T09:53:50.887Z,13.20
2018-05-27T09:56:25.524Z,12.90
2018-05-27T09:59:00.150Z,12.47
2018-05-27T10:01:34.748Z,13.03
2018-05-27T10:04:09.409Z,13.30
2018-05-27T10:06:44.090Z,13.53
2018-05-27T10:09:18.715Z,13.10
2018-05-27T10:11:53.344Z,13.30
2018-05-27T10:14:28.078Z,12.80
2018-05-27T10:17:02.833Z,12.70
2018-05-27T10:19:37.469Z,14.03
2018-05-27T10:22:11.940Z,13.77
2018-05-27T10:24:46.507Z,14.53
2018-05-27T10:27:21.154Z,14.60
2018-05-27T10:29:55.859Z,12.50
2018-05-27T10:32:30.437Z,14.70
2018-05-27T10:35:05.099Z,14.07
2018-05-27T10:37:39.759Z,12.77
2018-05-27T10:40:14.370Z,13.40
2018-05-27T10:42:48.934Z,13.40
2018-05-27T10:45:23.636Z,12.37
2018-05-27T10:47:58.269Z,12.60
2018-05-27T10:50:33.150Z,13.33
2018-05-27T10:53:07.537Z,11.90
2018-05-27T10:55:42.378Z,12.63
2018-05-27T10:58:17.024Z,11.57
2018-05-27T11:00:52.725Z,12.80
2018-05-27T11:03:28.217Z,9.83
2018-05-27T11:06:02.872Z,11.07
2018-05-27T11:08:37.521Z,10.50
2018-05-27T11:11:12.187Z,9.70
2018-05-27T11:13:46.767Z,9.93
2018-05-27T11:16:21.411Z,10.43
2018-05-27T11:18:56.086Z,9.20
2018-05-27T11:21:30.712Z,9.63
2018-05-27T11:24:05.275Z,9.73
2018-05-27T11:26:39.914Z,8.73
2018-05-27T11:29:14.738Z,9.90
2018-05-27T11:31:49.546Z,9.50
2018-05-27T11:34:24.261Z,9.90
2018-05-27T11:36:58.981Z,9.37
2018-05-27T11:39:33.954Z,8.73
2018-05-27T11:42:08.623Z,9.70
2018-05-27T11:44:43.209Z,9.60
2018-05-27T11:47:17.975Z,9.30
2018-05-27T11:49:52.607Z,9.90
2018-05-27T11:52:27.281Z,9.23
2018-05-27T11:55:01.884Z,9.20
2018-05-27T11:57:36.776Z,9.80
2018-05-27T12:00:11.460Z,9.60
2018-05-27T12:02:46.147Z,10.40
2018-05-27T12:05:21.122Z,9.73
2018-05-27T12:07:55.721Z,10.90
2018-05-27T12:10:30.370Z,10.33
2018-05-27T12:13:05.956Z,9.80
2018-05-27T12:15:41.372Z,8.43
2018-05-27T12:18:16.155Z,8.43
2018-05-27T12:20:51.469Z,8.67
2018-05-27T12:23:26.803Z,9.07
2018-05-27T12:26:01.392Z,8.57
2018-05-27T12:28:38.390Z,8.63
2018-05-27T12:31:13.101Z,7.73
2018-05-27T12:33:48.464Z,8.50
2018-05-27T12:36:23.804Z,7.97
2018-05-27T12:38:58.566Z,8.40
2018-05-27T12:41:33.242Z,9.23
2018-05-27T12:44:07.783Z,9.50
2018-05-27T12:46:42.424Z,8.23
2018-05-27T12:49:20.206Z,8.63
2018-05-27T12:51:54.746Z,8.10
2018-05-27T12:54:29.373Z,7.97
2018-05-27T12:57:04.151Z,8.30
2018-05-27T12:59:39.108Z,8.17
2018-05-27T13:02:13.771Z,7.60
2018-05-27T13:04:49.158Z,7.33
2018-05-27T13:07:24.621Z,7.50
2018-05-27T13:09:59.321Z,7.47
2018-05-27T13:12:33.930Z,7.80
2018-05-27T13:15:08.740Z,6.77
2018-05-27T13:17:43.347Z,6.83
2018-05-27T13:20:18.670Z,6.50
2018-05-27T13:22:53.324Z,6.37
2018-05-27T13:25:27.920Z,6.30
2018-05-27T13:28:02.574Z,6.37
2018-05-27T13:30:37.220Z,5.60
2018-05-27T13:33:11.789Z,6.00
2018-05-27T13:35:46.389Z,6.33
2018-05-27T13:38:20.978Z,5.93
2018-05-27T13:40:55.591Z,5.77
2018-05-27T13:43:30.201Z,6.00
2018-05-27T13:46:04.828Z,5.80
2018-05-27T13:48:39.476Z,5.30
2018-05-27T13:51:13.995Z,6.40
2018-05-27T13:53:48.659Z,6.53
2018-05-27T13:56:23.905Z,7.17
2018-05-27T14:01:53.017Z,6.30
2018-05-27T14:04:27.623Z,7.57
2018-05-27T14:09:17.247Z,6.47
2018-05-27T14:11:51.915Z,7.23
2018-05-27T14:14:26.705Z,6.37
2018-05-27T14:17:02.526Z,7.13
2018-05-27T14:19:37.063Z,7.07
2018-05-27T14:22:34.051Z,7.30
2018-05-27T14:25:10.493Z,7.20
2018-05-27T14:27:45.193Z,6.80
2018-05-27T14:30:19.856Z,7.47
2018-05-27T14:32:54.459Z,8.90
2018-05-27T14:35:29.807Z,8.47
2018-05-27T14:38:04.635Z,9.40
2018-05-27T14:40:38.855Z,10.20
2018-05-27T14:43:14.214Z,9.90
2018-05-27T14:45:51.955Z,10.87
2018-05-27T14:48:26.477Z,11.40
2018-05-27T14:51:22.485Z,11.07
2018-05-27T14:54:05.526Z,11.30
2018-05-27T14:56:53.488Z,12.20
2018-05-27T14:59:35.892Z,9.87
2018-05-27T15:04:59.132Z,10.07
2018-05-27T15:07:33.745Z,10.53
2018-05-27T15:10:08.512Z,9.43
2018-05-27T15:12:43.406Z,8.70
2018-05-27T15:15:18.112Z,8.70
2018-05-27T15:17:52.698Z,8.80
2018-05-27T15:23:19.402Z,8.20
2018-05-27T15:25:53.960Z,8.53
2018-05-27T15:28:40.096Z,9.30
2018-05-27T15:31:15.309Z,8.40
2018-05-27T15:33:50.102Z,7.70
2018-05-27T15:36:25.162Z,7.57
2018-05-27T15:39:03.651Z,8.13
2018-05-27T15:41:38.448Z,8.60
2018-05-27T15:44:13.055Z,8.00
2018-05-27T15:46:48.979Z,8.30
2018-05-27T15:49:24.496Z,8.60
2018-05-27T15:52:02.410Z,8.07
2018-05-27T15:54:37.189Z,8.73
2018-05-27T15:57:12.172Z,8.73
2018-05-27T15:59:49.119Z,8.23
2018-05-27T16:02:28.329Z,8.77
2018-05-27T16:05:03.176Z,7.23
2018-05-27T16:07:37.807Z,7.57
2018-05-27T16:10:15.820Z,8.20
2018-05-27T16:12:51.449Z,8.53
2018-05-27T16:15:26.712Z,7.67
2018-05-27T16:18:08.868Z,8.30
2018-05-27T16:20:43.664Z,7.40
2018-05-27T16:23:18.746Z,8.10
2018-05-27T16:25:56.647Z,8.10
2018-05-27T16:28:31.509Z,7.47
2018-05-27T16:31:06.216Z,9.30
2018-05-27T16:33:52.761Z,7.90
2018-05-27T16:36:29.275Z,8.00
2018-05-27T16:39:03.734Z,8.93
2018-05-27T16:41:41.541Z,9.40
2018-05-27T16:44:16.406Z,9.77
2018-05-27T16:46:54.400Z,9.60
2018-05-27T16:49:29.250Z,11.90
2018-05-27T16:52:05.498Z,10.70
2018-05-27T16:54:41.084Z,12.33
2018-05-27T16:57:15.763Z,11.43
2018-05-27T16:59:51.233Z,12.23
2018-05-27T17:02:25.974Z,11.80
2018-05-27T17:05:00.602Z,12.07
2018-05-27T17:07:35.395Z,12.47
2018-05-27T17:10:10.150Z,12.27
2018-05-27T17:12:45.120Z,11.70
2018-05-27T17:15:20.625Z,12.30
2018-05-27T17:17:55.977Z,11.47
2018-05-27T17:20:30.663Z,13.23
2018-05-27T17:23:06.193Z,12.93
2018-05-27T17:25:40.772Z,12.90
2018-05-27T17:28:15.471Z,12.60
2018-05-27T17:30:54.358Z,12.30
2018-05-27T17:33:29.161Z,13.13
2018-05-27T17:36:04.889Z,11.37
2018-05-27T17:38:39.717Z,11.27
2018-05-27T17:41:14.733Z,9.53
2018-05-27T17:43:52.613Z,9.93
2018-05-27T17:46:27.470Z,11.47
2018-05-27T17:49:02.565Z,10.30
2018-05-27T17:51:37.335Z,10.47
2018-05-27T17:54:12.332Z,9.53
2018-05-27T17:56:47.361Z,9.80
2018-05-27T17:59:22.097Z,9.47
2018-05-27T18:01:56.840Z,9.20
2018-05-27T18:04:32.458Z,9.20
2018-05-27T18:07:08.943Z,8.67
2018-05-27T18:09:54.730Z,9.20
2018-05-27T18:12:32.004Z,8.87
2018-05-27T18:15:11.388Z,8.73
2018-05-27T18:17:46.928Z,8.40
2018-05-27T18:20:23.632Z,9.10
2018-05-27T18:22:58.507Z,8.30
2018-05-27T18:25:33.419Z,8.67
2018-05-27T18:31:54.130Z,8.23
2018-05-27T18:34:29.651Z,8.33
2018-05-27T18:37:05.437Z,8.77
2018-05-27T18:39:40.403Z,8.53
2018-05-27T18:42:15.135Z,8.87
2018-05-27T18:44:50.132Z,8.50
2018-05-27T18:47:25.813Z,9.00
2018-05-27T18:50:00.694Z,8.27
2018-05-27T18:52:35.502Z,8.77
2018-05-27T18:55:10.209Z,8.27
2018-05-27T18:57:45.136Z,8.10
2018-05-27T19:00:20.508Z,8.77
2018-05-27T19:02:55.164Z,7.80
2018-05-27T19:05:32.880Z,8.50
2018-05-27T19:08:08.374Z,7.87
2018-05-27T19:10:43.165Z,8.33
2018-05-27T19:13:18.660Z,8.43
2018-05-27T19:15:53.266Z,7.83
2018-05-27T19:18:28.121Z,8.53
2018-05-27T19:21:02.857Z,8.87
2018-05-27T19:23:37.558Z,8.97
2018-05-27T19:26:12.144Z,9.70
2018-05-27T19:28:47.168Z,8.90
2018-05-27T19:31:21.916Z,8.97
2018-05-27T19:33:56.573Z,8.93
2018-05-27T19:36:31.401Z,9.80
2018-05-27T19:39:06.357Z,8.90
2018-05-27T19:41:41.168Z,10.40
2018-05-27T19:44:15.782Z,9.33
2018-05-27T19:46:50.450Z,10.27
2018-05-27T19:49:25.283Z,10.60
2018-05-27T19:52:00.103Z,11.30
2018-05-27T19:54:34.829Z,10.93
2018-05-27T19:57:09.667Z,10.73
2018-05-27T19:59:38.758Z,10.57
2018-05-27T20:02:07.886Z,10.97
2018-05-27T20:04:38.020Z,10.30
2018-05-27T20:07:07.048Z,10.67
2018-05-27T20:09:36.164Z,10.33
2018-05-27T20:12:05.370Z,10.87
2018-05-27T20:14:34.349Z,11.57
2018-05-27T20:17:03.496Z,10.47
2018-05-27T20:19:32.705Z,11.07
2018-05-27T20:22:02.716Z,10.27
2018-05-27T20:24:31.906Z,10.13
2018-05-27T20:27:01.665Z,11.20
2018-05-27T20:29:31.838Z,11.20
2018-05-27T20:32:01.272Z,11.20
2018-05-27T20:34:30.538Z,11.43
2018-05-27T20:36:59.909Z,11.17
2018-05-27T20:39:29.109Z,10.27
2018-05-27T20:41:58.256Z,11.10
2018-05-27T20:44:28.437Z,12.23
2018-05-27T20:46:57.838Z,11.20
2018-05-27T20:49:26.707Z,11.30
2018-05-27T20:51:56.069Z,10.40
2018-05-27T20:54:25.202Z,10.67
2018-05-27T20:56:54.280Z,10.80
2018-05-27T20:59:28.858Z,10.70
2018-05-27T21:02:03.593Z,11.97
2018-05-27T21:04:39.027Z,11.07
2018-05-27T21:07:14.486Z,12.30
2018-05-27T21:09:49.217Z,12.13
2018-05-27T21:12:24.053Z,10.50
2018-05-27T21:14:58.757Z,12.33
2018-05-27T21:17:33.399Z,12.03
2018-05-27T21:20:08.169Z,13.73
2018-05-27T21:22:43.727Z,13.40
2018-05-27T21:25:18.447Z,13.20
2018-05-27T21:27:53.002Z,12.83
2018-05-27T21:30:27.833Z,13.67
2018-05-27T21:33:03.331Z,13.10
2018-05-27T21:35:38.092Z,13.23
2018-05-27T21:38:13.647Z,14.13
2018-05-27T21:40:48.364Z,12.97
2018-05-27T21:43:23.985Z,13.60
2018-05-27T21:45:58.615Z,13.80
2018-05-27T21:48:33.566Z,13.20
2018-05-27T21:51:08.840Z,13.30
2018-05-27T21:53:43.357Z,14.07
2018-05-27T21:56:18.755Z,15.60
2018-05-27T21:58:53.346Z,13.50
2018-05-27T22:01:27.995Z,14.83
2018-05-27T22:04:02.699Z,14.93
2018-05-27T22:06:31.861Z,15.50
2018-05-27T22:09:05.888Z,15.00
2018-05-27T22:11:41.230Z,14.77
2018-05-27T22:14:15.868Z,14.70
2018-05-27T22:16:50.479Z,15.77
2018-05-27T22:19:20.420Z,15.27
2018-05-27T22:21:55.010Z,15.00
2018-05-27T22:24:29.712Z,15.60
2018-05-27T22:27:04.317Z,15.97
2018-05-27T22:29:39.264Z,16.53
2018-05-27T22:32:13.938Z,15.73
2018-05-27T22:34:49.278Z,16.20
2018-05-27T22:37:24.178Z,16.77
2018-05-27T22:39:59.581Z,15.40
2018-05-27T22:42:34.519Z,16.87
2018-05-27T22:45:09.114Z,16.03
2018-05-27T22:47:43.749Z,16.63
2018-05-27T22:50:18.345Z,15.47
2018-05-27T22:52:52.944Z,15.07
2018-05-27T22:55:27.540Z,16.10
2018-05-27T22:58:02.119Z,15.53
2018-05-27T23:00:36.752Z,15.63
2018-05-27T23:03:11.394Z,17.00
2018-05-27T23:05:46.086Z,16.70
2018-05-27T23:08:20.624Z,17.23
2018-05-27T23:10:55.248Z,17.77
2018-05-27T23:13:29.841Z,17.17
2018-05-27T23:16:04.531Z,17.10
2018-05-27T23:18:39.231Z,17.57
2018-05-27T23:21:13.817Z,17.47
2018-05-27T23:23:48.132Z,16.20
2018-05-27T23:26:22.713Z,16.93
2018-05-27T23:28:58.019Z,16.17
2018-05-27T23:31:28.915Z,17.67
2018-05-27T23:34:03.497Z,17.40
2018-05-27T23:36:38.533Z,16.90
2018-05-27T23:39:13.148Z,17.30
2018-05-27T23:41:48.141Z,18.40
2018-05-27T23:44:22.719Z,17.57
2018-05-27T23:46:57.531Z,18.77
2018-05-27T23:49:32.306Z,16.90
2018-05-27T23:52:07.031Z,17.13
2018-05-27T23:54:42.367Z,18.13
2018-05-27T23:57:11.428Z,18.80
2018-05-27T23:59:47.124Z,19.30
